sensor_id;sensor_type;location;lat;lon;timestamp;P1;durP1;ratioP1;P2;durP2;ratioP2
78404;SDS011;67689;43.592;1.418;2023-02-12T00:01:14;30.15;;;14.75;;
78404;SDS011;67689;43.592;1.418;2023-02-12T00:03:39;29.15;;;14.50;;
78404;SDS011;67689;43.592;1.418;2023-02-12T00:06:06;29.25;;;14.00;;
78404;SDS011;67689;43.592;1.418;2023-02-12T00:08:32;29.55;;;14.18;;
78404;SDS011;67689;43.592;1.418;2023-02-12T00:10:57;30.67;;;14.07;;
78404;SDS011;67689;43.592;1.418;2023-02-12T00:13:23;30.17;;;13.88;;
78404;SDS011;67689;43.592;1.418;2023-02-12T00:15:48;29.08;;;13.93;;
78404;SDS011;67689;43.592;1.418;2023-02-12T00:18:14;28.40;;;13.77;;
78404;SDS011;67689;43.592;1.418;2023-02-12T00:20:39;31.70;;;14.07;;
78404;SDS011;67689;43.592;1.418;2023-02-12T00:23:05;30.10;;;14.02;;
78404;SDS011;67689;43.592;1.418;2023-02-12T00:25:31;34.20;;;14.52;;
78404;SDS011;67689;43.592;1.418;2023-02-12T00:27:57;30.80;;;13.77;;
78404;SDS011;67689;43.592;1.418;2023-02-12T00:30:23;31.48;;;14.20;;
78404;SDS011;67689;43.592;1.418;2023-02-12T00:32:48;38.15;;;14.35;;
78404;SDS011;67689;43.592;1.418;2023-02-12T00:35:13;29.75;;;14.13;;
78404;SDS011;67689;43.592;1.418;2023-02-12T00:37:40;31.77;;;14.88;;
78404;SDS011;67689;43.592;1.418;2023-02-12T00:40:06;31.83;;;14.70;;
78404;SDS011;67689;43.592;1.418;2023-02-12T00:42:31;32.55;;;15.02;;
78404;SDS011;67689;43.592;1.418;2023-02-12T00:44:57;29.98;;;13.60;;
78404;SDS011;67689;43.592;1.418;2023-02-12T00:47:23;30.63;;;15.20;;
78404;SDS011;67689;43.592;1.418;2023-02-12T00:49:48;28.80;;;13.65;;
78404;SDS011;67689;43.592;1.418;2023-02-12T00:52:14;29.35;;;13.35;;
78404;SDS011;67689;43.592;1.418;2023-02-12T00:54:39;31.58;;;14.63;;
78404;SDS011;67689;43.592;1.418;2023-02-12T00:57:04;30.77;;;14.85;;
78404;SDS011;67689;43.592;1.418;2023-02-12T00:59:30;32.05;;;14.93;;
78404;SDS011;67689;43.592;1.418;2023-02-12T01:01:55;28.48;;;13.63;;
78404;SDS011;67689;43.592;1.418;2023-02-12T01:04:21;31.40;;;13.70;;
78404;SDS011;67689;43.592;1.418;2023-02-12T01:06:47;31.52;;;14.00;;
78404;SDS011;67689;43.592;1.418;2023-02-12T01:09:14;39.47;;;16.40;;
78404;SDS011;67689;43.592;1.418;2023-02-12T01:11:39;29.70;;;14.23;;
78404;SDS011;67689;43.592;1.418;2023-02-12T01:14:05;32.55;;;14.82;;
78404;SDS011;67689;43.592;1.418;2023-02-12T01:16:31;33.20;;;14.43;;
78404;SDS011;67689;43.592;1.418;2023-02-12T01:18:58;31.70;;;14.48;;
78404;SDS011;67689;43.592;1.418;2023-02-12T01:21:24;30.23;;;14.52;;
78404;SDS011;67689;43.592;1.418;2023-02-12T01:23:52;30.15;;;14.43;;
78404;SDS011;67689;43.592;1.418;2023-02-12T01:26:17;34.42;;;15.75;;
78404;SDS011;67689;43.592;1.418;2023-02-12T01:28:47;32.58;;;14.77;;
78404;SDS011;67689;43.592;1.418;2023-02-12T01:31:15;32.80;;;14.48;;
78404;SDS011;67689;43.592;1.418;2023-02-12T01:33:42;32.75;;;14.88;;
78404;SDS011;67689;43.592;1.418;2023-02-12T01:36:08;31.77;;;14.88;;
78404;SDS011;67689;43.592;1.418;2023-02-12T01:38:34;31.13;;;14.73;;
78404;SDS011;67689;43.592;1.418;2023-02-12T01:41:03;32.10;;;15.43;;
78404;SDS011;67689;43.592;1.418;2023-02-12T01:43:29;31.52;;;15.48;;
78404;SDS011;67689;43.592;1.418;2023-02-12T01:45:55;31.58;;;15.25;;
78404;SDS011;67689;43.592;1.418;2023-02-12T01:48:23;31.45;;;14.18;;
78404;SDS011;67689;43.592;1.418;2023-02-12T01:50:50;36.47;;;16.25;;
78404;SDS011;67689;43.592;1.418;2023-02-12T01:53:17;33.13;;;15.27;;
78404;SDS011;67689;43.592;1.418;2023-02-12T01:55:48;34.22;;;15.18;;
78404;SDS011;67689;43.592;1.418;2023-02-12T01:58:15;31.02;;;15.70;;
78404;SDS011;67689;43.592;1.418;2023-02-12T02:00:41;30.52;;;15.30;;
78404;SDS011;67689;43.592;1.418;2023-02-12T02:03:07;34.05;;;15.60;;
78404;SDS011;67689;43.592;1.418;2023-02-12T02:08:19;31.95;;;16.05;;
78404;SDS011;67689;43.592;1.418;2023-02-12T02:10:45;34.65;;;15.50;;
78404;SDS011;67689;43.592;1.418;2023-02-12T02:13:10;31.15;;;15.18;;
78404;SDS011;67689;43.592;1.418;2023-02-12T02:15:56;32.75;;;15.10;;
78404;SDS011;67689;43.592;1.418;2023-02-12T02:18:32;33.65;;;16.58;;
78404;SDS011;67689;43.592;1.418;2023-02-12T02:24:11;36.17;;;15.65;;
78404;SDS011;67689;43.592;1.418;2023-02-12T02:26:45;34.45;;;15.90;;
78404;SDS011;67689;43.592;1.418;2023-02-12T02:34:59;35.30;;;17.13;;
78404;SDS011;67689;43.592;1.418;2023-02-12T02:37:26;33.78;;;16.83;;
78404;SDS011;67689;43.592;1.418;2023-02-12T02:40:06;34.33;;;16.70;;
78404;SDS011;67689;43.592;1.418;2023-02-12T02:42:39;37.20;;;16.80;;
78404;SDS011;67689;43.592;1.418;2023-02-12T02:45:11;38.05;;;17.38;;
78404;SDS011;67689;43.592;1.418;2023-02-12T02:47:51;38.00;;;17.17;;
78404;SDS011;67689;43.592;1.418;2023-02-12T02:50:22;34.38;;;17.08;;
78404;SDS011;67689;43.592;1.418;2023-02-12T02:52:49;37.38;;;17.77;;
78404;SDS011;67689;43.592;1.418;2023-02-12T02:55:18;35.45;;;16.83;;
78404;SDS011;67689;43.592;1.418;2023-02-12T03:00:25;34.80;;;16.63;;
78404;SDS011;67689;43.592;1.418;2023-02-12T03:02:58;37.80;;;16.83;;
78404;SDS011;67689;43.592;1.418;2023-02-12T03:05:31;39.78;;;17.00;;
78404;SDS011;67689;43.592;1.418;2023-02-12T03:08:00;37.92;;;17.05;;
78404;SDS011;67689;43.592;1.418;2023-02-12T03:10:30;37.35;;;17.42;;
78404;SDS011;67689;43.592;1.418;2023-02-12T03:15:38;39.83;;;17.33;;
78404;SDS011;67689;43.592;1.418;2023-02-12T03:18:10;34.92;;;17.35;;
78404;SDS011;67689;43.592;1.418;2023-02-12T03:20:51;37.65;;;16.92;;
78404;SDS011;67689;43.592;1.418;2023-02-12T03:23:27;35.45;;;17.73;;
78404;SDS011;67689;43.592;1.418;2023-02-12T03:25:56;36.85;;;17.75;;
78404;SDS011;67689;43.592;1.418;2023-02-12T03:28:27;38.70;;;18.35;;
78404;SDS011;67689;43.592;1.418;2023-02-12T03:33:35;36.58;;;16.90;;
78404;SDS011;67689;43.592;1.418;2023-02-12T03:36:12;41.83;;;18.30;;
78404;SDS011;67689;43.592;1.418;2023-02-12T03:39:01;37.50;;;17.75;;
78404;SDS011;67689;43.592;1.418;2023-02-12T03:41:45;40.22;;;17.90;;
78404;SDS011;67689;43.592;1.418;2023-02-12T03:44:17;38.55;;;17.63;;
78404;SDS011;67689;43.592;1.418;2023-02-12T03:47:16;37.95;;;17.33;;
78404;SDS011;67689;43.592;1.418;2023-02-12T03:52:09;37.85;;;17.63;;
78404;SDS011;67689;43.592;1.418;2023-02-12T03:54:35;38.05;;;17.85;;
78404;SDS011;67689;43.592;1.418;2023-02-12T03:57:02;39.08;;;18.35;;
78404;SDS011;67689;43.592;1.418;2023-02-12T03:59:31;40.63;;;17.65;;
78404;SDS011;67689;43.592;1.418;2023-02-12T04:01:59;36.42;;;17.95;;
78404;SDS011;67689;43.592;1.418;2023-02-12T04:04:25;37.47;;;18.17;;
78404;SDS011;67689;43.592;1.418;2023-02-12T04:06:50;37.70;;;17.50;;
78404;SDS011;67689;43.592;1.418;2023-02-12T04:09:17;38.03;;;16.95;;
78404;SDS011;67689;43.592;1.418;2023-02-12T04:11:46;37.28;;;17.08;;
78404;SDS011;67689;43.592;1.418;2023-02-12T04:14:38;39.72;;;18.80;;
78404;SDS011;67689;43.592;1.418;2023-02-12T04:17:49;37.45;;;17.08;;
78404;SDS011;67689;43.592;1.418;2023-02-12T04:26:31;35.35;;;16.15;;
78404;SDS011;67689;43.592;1.418;2023-02-12T04:39:42;38.25;;;17.58;;
78404;SDS011;67689;43.592;1.418;2023-02-12T04:42:08;36.25;;;16.52;;
78404;SDS011;67689;43.592;1.418;2023-02-12T04:44:36;37.75;;;17.20;;
78404;SDS011;67689;43.592;1.418;2023-02-12T04:47:03;40.30;;;17.48;;
78404;SDS011;67689;43.592;1.418;2023-02-12T04:49:29;38.17;;;16.85;;
78404;SDS011;67689;43.592;1.418;2023-02-12T04:51:55;36.50;;;17.73;;
78404;SDS011;67689;43.592;1.418;2023-02-12T04:54:20;36.40;;;17.38;;
78404;SDS011;67689;43.592;1.418;2023-02-12T04:56:47;35.03;;;16.83;;
78404;SDS011;67689;43.592;1.418;2023-02-12T04:59:12;35.53;;;16.67;;
78404;SDS011;67689;43.592;1.418;2023-02-12T05:01:38;37.17;;;16.60;;
78404;SDS011;67689;43.592;1.418;2023-02-12T05:04:05;36.72;;;17.67;;
78404;SDS011;67689;43.592;1.418;2023-02-12T05:06:33;38.97;;;16.65;;
78404;SDS011;67689;43.592;1.418;2023-02-12T05:09:00;34.42;;;16.85;;
78404;SDS011;67689;43.592;1.418;2023-02-12T05:11:25;38.03;;;17.30;;
78404;SDS011;67689;43.592;1.418;2023-02-12T05:13:51;33.95;;;16.10;;
78404;SDS011;67689;43.592;1.418;2023-02-12T05:16:17;36.47;;;17.25;;
78404;SDS011;67689;43.592;1.418;2023-02-12T05:18:43;34.53;;;16.73;;
78404;SDS011;67689;43.592;1.418;2023-02-12T05:21:09;32.40;;;16.23;;
78404;SDS011;67689;43.592;1.418;2023-02-12T05:23:35;39.70;;;16.92;;
78404;SDS011;67689;43.592;1.418;2023-02-12T05:26:02;36.00;;;16.92;;
78404;SDS011;67689;43.592;1.418;2023-02-12T05:28:30;35.05;;;16.75;;
78404;SDS011;67689;43.592;1.418;2023-02-12T05:30:59;35.53;;;17.40;;
78404;SDS011;67689;43.592;1.418;2023-02-12T05:33:26;37.30;;;16.30;;
78404;SDS011;67689;43.592;1.418;2023-02-12T05:35:51;34.85;;;16.38;;
78404;SDS011;67689;43.592;1.418;2023-02-12T05:38:17;35.75;;;17.02;;
78404;SDS011;67689;43.592;1.418;2023-02-12T05:40:42;37.45;;;17.83;;
78404;SDS011;67689;43.592;1.418;2023-02-12T05:43:08;32.47;;;16.33;;
78404;SDS011;67689;43.592;1.418;2023-02-12T05:45:33;34.08;;;16.52;;
78404;SDS011;67689;43.592;1.418;2023-02-12T05:47:59;36.42;;;16.45;;
78404;SDS011;67689;43.592;1.418;2023-02-12T05:50:24;36.47;;;16.92;;
78404;SDS011;67689;43.592;1.418;2023-02-12T05:52:50;35.72;;;17.02;;
78404;SDS011;67689;43.592;1.418;2023-02-12T05:55:15;34.75;;;16.38;;
78404;SDS011;67689;43.592;1.418;2023-02-12T05:57:41;33.20;;;16.20;;
78404;SDS011;67689;43.592;1.418;2023-02-12T06:00:07;33.88;;;17.02;;
78404;SDS011;67689;43.592;1.418;2023-02-12T06:02:33;31.63;;;16.25;;
78404;SDS011;67689;43.592;1.418;2023-02-12T06:04:59;37.40;;;17.65;;
78404;SDS011;67689;43.592;1.418;2023-02-12T06:07:24;35.13;;;16.77;;
78404;SDS011;67689;43.592;1.418;2023-02-12T06:09:49;31.55;;;16.38;;
78404;SDS011;67689;43.592;1.418;2023-02-12T06:12:15;34.50;;;16.90;;
78404;SDS011;67689;43.592;1.418;2023-02-12T06:14:40;35.83;;;16.55;;
78404;SDS011;67689;43.592;1.418;2023-02-12T06:17:06;37.67;;;16.90;;
78404;SDS011;67689;43.592;1.418;2023-02-12T06:19:31;35.35;;;16.52;;
78404;SDS011;67689;43.592;1.418;2023-02-12T06:21:57;37.83;;;17.38;;
78404;SDS011;67689;43.592;1.418;2023-02-12T06:24:23;34.53;;;17.13;;
78404;SDS011;67689;43.592;1.418;2023-02-12T06:26:49;40.90;;;17.90;;
78404;SDS011;67689;43.592;1.418;2023-02-12T06:29:15;35.65;;;17.13;;
78404;SDS011;67689;43.592;1.418;2023-02-12T06:31:40;37.92;;;16.80;;
78404;SDS011;67689;43.592;1.418;2023-02-12T06:34:07;37.63;;;17.40;;
78404;SDS011;67689;43.592;1.418;2023-02-12T06:36:35;38.25;;;16.38;;
78404;SDS011;67689;43.592;1.418;2023-02-12T06:39:02;35.97;;;16.27;;
78404;SDS011;67689;43.592;1.418;2023-02-12T06:41:28;35.40;;;17.40;;
78404;SDS011;67689;43.592;1.418;2023-02-12T06:43:53;36.88;;;16.65;;
78404;SDS011;67689;43.592;1.418;2023-02-12T06:46:19;37.83;;;18.40;;
78404;SDS011;67689;43.592;1.418;2023-02-12T06:48:45;36.42;;;17.23;;
78404;SDS011;67689;43.592;1.418;2023-02-12T06:51:14;36.63;;;17.50;;
78404;SDS011;67689;43.592;1.418;2023-02-12T06:53:42;37.92;;;17.75;;
78404;SDS011;67689;43.592;1.418;2023-02-12T06:56:08;37.38;;;18.42;;
78404;SDS011;67689;43.592;1.418;2023-02-12T06:58:36;33.45;;;16.77;;
78404;SDS011;67689;43.592;1.418;2023-02-12T07:03:40;38.20;;;17.98;;
78404;SDS011;67689;43.592;1.418;2023-02-12T07:06:06;39.08;;;18.38;;
78404;SDS011;67689;43.592;1.418;2023-02-12T07:08:32;36.45;;;17.08;;
78404;SDS011;67689;43.592;1.418;2023-02-12T07:10:57;37.35;;;17.75;;
78404;SDS011;67689;43.592;1.418;2023-02-12T07:13:23;40.78;;;17.95;;
78404;SDS011;67689;43.592;1.418;2023-02-12T07:15:48;33.60;;;16.63;;
78404;SDS011;67689;43.592;1.418;2023-02-12T07:18:14;38.00;;;17.33;;
78404;SDS011;67689;43.592;1.418;2023-02-12T07:20:39;36.13;;;16.92;;
78404;SDS011;67689;43.592;1.418;2023-02-12T07:23:05;37.95;;;17.70;;
78404;SDS011;67689;43.592;1.418;2023-02-12T07:25:31;34.78;;;17.40;;
78404;SDS011;67689;43.592;1.418;2023-02-12T07:27:56;37.95;;;18.15;;
78404;SDS011;67689;43.592;1.418;2023-02-12T07:30:21;36.80;;;16.83;;
78404;SDS011;67689;43.592;1.418;2023-02-12T07:32:47;40.22;;;18.08;;
78404;SDS011;67689;43.592;1.418;2023-02-12T07:35:12;37.58;;;17.23;;
78404;SDS011;67689;43.592;1.418;2023-02-12T07:37:38;39.63;;;19.15;;
78404;SDS011;67689;43.592;1.418;2023-02-12T07:40:03;36.20;;;17.80;;
78404;SDS011;67689;43.592;1.418;2023-02-12T07:42:29;38.72;;;17.30;;
78404;SDS011;67689;43.592;1.418;2023-02-12T07:44:55;35.40;;;18.08;;
78404;SDS011;67689;43.592;1.418;2023-02-12T07:47:20;33.53;;;17.08;;
78404;SDS011;67689;43.592;1.418;2023-02-12T07:49:45;38.03;;;18.10;;
78404;SDS011;67689;43.592;1.418;2023-02-12T07:52:11;36.40;;;18.15;;
78404;SDS011;67689;43.592;1.418;2023-02-12T07:54:36;38.85;;;18.60;;
78404;SDS011;67689;43.592;1.418;2023-02-12T07:57:03;34.88;;;17.15;;
78404;SDS011;67689;43.592;1.418;2023-02-12T07:59:28;38.40;;;18.17;;
78404;SDS011;67689;43.592;1.418;2023-02-12T08:01:54;34.17;;;17.27;;
78404;SDS011;67689;43.592;1.418;2023-02-12T08:04:21;37.58;;;17.77;;
78404;SDS011;67689;43.592;1.418;2023-02-12T08:06:49;33.92;;;16.52;;
78404;SDS011;67689;43.592;1.418;2023-02-12T08:09:19;38.55;;;17.67;;
78404;SDS011;67689;43.592;1.418;2023-02-12T08:11:46;37.75;;;18.10;;
78404;SDS011;67689;43.592;1.418;2023-02-12T08:14:16;40.92;;;18.75;;
78404;SDS011;67689;43.592;1.418;2023-02-12T08:16:44;44.25;;;19.05;;
78404;SDS011;67689;43.592;1.418;2023-02-12T08:19:11;38.95;;;18.38;;
78404;SDS011;67689;43.592;1.418;2023-02-12T08:21:36;38.22;;;17.75;;
78404;SDS011;67689;43.592;1.418;2023-02-12T08:24:02;39.80;;;18.08;;
78404;SDS011;67689;43.592;1.418;2023-02-12T08:26:31;38.65;;;18.50;;
78404;SDS011;67689;43.592;1.418;2023-02-12T08:29:04;38.90;;;18.35;;
78404;SDS011;67689;43.592;1.418;2023-02-12T08:31:34;40.95;;;18.58;;
78404;SDS011;67689;43.592;1.418;2023-02-12T08:34:03;36.47;;;18.30;;
78404;SDS011;67689;43.592;1.418;2023-02-12T08:36:30;37.13;;;17.95;;
78404;SDS011;67689;43.592;1.418;2023-02-12T08:39:01;39.65;;;18.10;;
78404;SDS011;67689;43.592;1.418;2023-02-12T08:41:27;39.00;;;17.92;;
78404;SDS011;67689;43.592;1.418;2023-02-12T08:43:54;43.03;;;20.15;;
78404;SDS011;67689;43.592;1.418;2023-02-12T08:46:22;36.85;;;18.17;;
78404;SDS011;67689;43.592;1.418;2023-02-12T08:48:56;37.75;;;18.63;;
78404;SDS011;67689;43.592;1.418;2023-02-12T08:51:24;37.90;;;19.02;;
78404;SDS011;67689;43.592;1.418;2023-02-12T08:53:52;37.40;;;17.42;;
78404;SDS011;67689;43.592;1.418;2023-02-12T08:56:19;38.72;;;19.45;;
78404;SDS011;67689;43.592;1.418;2023-02-12T08:58:45;44.33;;;19.88;;
78404;SDS011;67689;43.592;1.418;2023-02-12T09:01:13;39.58;;;19.50;;
78404;SDS011;67689;43.592;1.418;2023-02-12T09:03:40;42.85;;;19.80;;
78404;SDS011;67689;43.592;1.418;2023-02-12T09:06:06;38.35;;;18.15;;
78404;SDS011;67689;43.592;1.418;2023-02-12T09:08:31;38.42;;;18.80;;
78404;SDS011;67689;43.592;1.418;2023-02-12T09:10:57;42.28;;;18.90;;
78404;SDS011;67689;43.592;1.418;2023-02-12T09:13:23;38.55;;;18.50;;
78404;SDS011;67689;43.592;1.418;2023-02-12T09:15:49;39.20;;;18.70;;
78404;SDS011;67689;43.592;1.418;2023-02-12T09:18:14;38.83;;;19.23;;
78404;SDS011;67689;43.592;1.418;2023-02-12T09:20:41;42.17;;;18.88;;
78404;SDS011;67689;43.592;1.418;2023-02-12T09:23:08;37.47;;;18.33;;
78404;SDS011;67689;43.592;1.418;2023-02-12T09:25:37;41.20;;;18.90;;
78404;SDS011;67689;43.592;1.418;2023-02-12T09:28:04;38.50;;;19.38;;
78404;SDS011;67689;43.592;1.418;2023-02-12T09:30:29;40.22;;;19.02;;
78404;SDS011;67689;43.592;1.418;2023-02-12T09:32:55;41.72;;;19.23;;
78404;SDS011;67689;43.592;1.418;2023-02-12T09:35:21;38.08;;;19.80;;
78404;SDS011;67689;43.592;1.418;2023-02-12T09:37:47;40.38;;;18.95;;
78404;SDS011;67689;43.592;1.418;2023-02-12T09:40:17;35.83;;;17.95;;
78404;SDS011;67689;43.592;1.418;2023-02-12T09:43:03;38.10;;;18.15;;
78404;SDS011;67689;43.592;1.418;2023-02-12T09:45:41;44.13;;;19.40;;
78404;SDS011;67689;43.592;1.418;2023-02-12T09:51:04;40.80;;;20.45;;
78404;SDS011;67689;43.592;1.418;2023-02-12T09:53:32;40.83;;;19.02;;
78404;SDS011;67689;43.592;1.418;2023-02-12T09:56:00;34.65;;;18.10;;
78404;SDS011;67689;43.592;1.418;2023-02-12T09:58:33;38.20;;;18.52;;
78404;SDS011;67689;43.592;1.418;2023-02-12T10:01:09;37.63;;;17.63;;
78404;SDS011;67689;43.592;1.418;2023-02-12T10:03:37;36.75;;;19.05;;
78404;SDS011;67689;43.592;1.418;2023-02-12T10:06:06;35.67;;;18.52;;
78404;SDS011;67689;43.592;1.418;2023-02-12T10:08:40;37.70;;;18.20;;
78404;SDS011;67689;43.592;1.418;2023-02-12T10:13:59;35.50;;;17.50;;
78404;SDS011;67689;43.592;1.418;2023-02-12T10:22:00;36.67;;;18.13;;
78404;SDS011;67689;43.592;1.418;2023-02-12T10:27:32;35.28;;;17.88;;
78404;SDS011;67689;43.592;1.418;2023-02-12T10:29:59;35.55;;;17.75;;
78404;SDS011;67689;43.592;1.418;2023-02-12T10:32:29;36.95;;;18.08;;
78404;SDS011;67689;43.592;1.418;2023-02-12T10:34:58;35.28;;;17.67;;
78404;SDS011;67689;43.592;1.418;2023-02-12T10:37:30;34.75;;;17.45;;
78404;SDS011;67689;43.592;1.418;2023-02-12T10:40:04;36.75;;;18.55;;
78404;SDS011;67689;43.592;1.418;2023-02-12T10:42:39;36.25;;;18.38;;
78404;SDS011;67689;43.592;1.418;2023-02-12T10:45:11;35.05;;;18.05;;
78404;SDS011;67689;43.592;1.418;2023-02-12T10:47:38;33.25;;;18.15;;
78404;SDS011;67689;43.592;1.418;2023-02-12T10:50:07;35.88;;;17.50;;
78404;SDS011;67689;43.592;1.418;2023-02-12T10:52:58;34.53;;;17.15;;
78404;SDS011;67689;43.592;1.418;2023-02-12T10:55:31;33.85;;;16.52;;
78404;SDS011;67689;43.592;1.418;2023-02-12T10:58:01;35.38;;;16.38;;
78404;SDS011;67689;43.592;1.418;2023-02-12T11:03:02;37.38;;;17.35;;
78404;SDS011;67689;43.592;1.418;2023-02-12T11:05:32;32.95;;;16.73;;
78404;SDS011;67689;43.592;1.418;2023-02-12T11:07:58;34.88;;;16.77;;
78404;SDS011;67689;43.592;1.418;2023-02-12T11:10:26;35.15;;;17.33;;
78404;SDS011;67689;43.592;1.418;2023-02-12T11:12:52;33.25;;;16.90;;
78404;SDS011;67689;43.592;1.418;2023-02-12T11:15:19;39.53;;;17.55;;
78404;SDS011;67689;43.592;1.418;2023-02-12T11:17:59;39.53;;;17.75;;
78404;SDS011;67689;43.592;1.418;2023-02-12T11:20:36;33.58;;;17.10;;
78404;SDS011;67689;43.592;1.418;2023-02-12T11:23:05;33.15;;;17.27;;
78404;SDS011;67689;43.592;1.418;2023-02-12T11:28:28;33.72;;;16.75;;
78404;SDS011;67689;43.592;1.418;2023-02-12T11:30:57;34.58;;;16.17;;
78404;SDS011;67689;43.592;1.418;2023-02-12T11:33:25;34.42;;;16.73;;
78404;SDS011;67689;43.592;1.418;2023-02-12T11:36:10;35.17;;;17.25;;
78404;SDS011;67689;43.592;1.418;2023-02-12T11:38:46;34.50;;;16.88;;
78404;SDS011;67689;43.592;1.418;2023-02-12T11:41:20;34.20;;;16.13;;
78404;SDS011;67689;43.592;1.418;2023-02-12T11:43:47;31.17;;;16.40;;
78404;SDS011;67689;43.592;1.418;2023-02-12T11:46:17;34.20;;;16.67;;
78404;SDS011;67689;43.592;1.418;2023-02-12T11:48:44;33.25;;;16.52;;
78404;SDS011;67689;43.592;1.418;2023-02-12T11:51:16;31.35;;;15.45;;
78404;SDS011;67689;43.592;1.418;2023-02-12T11:53:46;30.92;;;16.17;;
78404;SDS011;67689;43.592;1.418;2023-02-12T11:56:13;34.25;;;17.80;;
78404;SDS011;67689;43.592;1.418;2023-02-12T11:58:39;33.92;;;16.77;;
78404;SDS011;67689;43.592;1.418;2023-02-12T12:09:41;31.27;;;15.13;;
78404;SDS011;67689;43.592;1.418;2023-02-12T12:14:54;29.00;;;15.48;;
78404;SDS011;67689;43.592;1.418;2023-02-12T12:18:05;26.80;;;15.32;;
78404;SDS011;67689;43.592;1.418;2023-02-12T12:24:14;32.28;;;15.57;;
78404;SDS011;67689;43.592;1.418;2023-02-12T12:26:43;28.45;;;15.32;;
78404;SDS011;67689;43.592;1.418;2023-02-12T12:31:52;26.00;;;14.32;;
78404;SDS011;67689;43.592;1.418;2023-02-12T12:34:22;29.15;;;15.38;;
78404;SDS011;67689;43.592;1.418;2023-02-12T12:44:44;26.73;;;14.27;;
78404;SDS011;67689;43.592;1.418;2023-02-12T12:52:33;27.52;;;13.95;;
78404;SDS011;67689;43.592;1.418;2023-02-12T13:00:18;29.80;;;14.65;;
78404;SDS011;67689;43.592;1.418;2023-02-12T13:05:39;27.95;;;13.95;;
78404;SDS011;67689;43.592;1.418;2023-02-12T13:14:02;29.65;;;16.15;;
78404;SDS011;67689;43.592;1.418;2023-02-12T13:16:39;24.25;;;13.15;;
78404;SDS011;67689;43.592;1.418;2023-02-12T13:21:50;23.90;;;11.93;;
78404;SDS011;67689;43.592;1.418;2023-02-12T13:26:58;23.13;;;12.40;;
78404;SDS011;67689;43.592;1.418;2023-02-12T13:29:37;26.50;;;13.50;;
78404;SDS011;67689;43.592;1.418;2023-02-12T13:34:52;25.15;;;12.30;;
78404;SDS011;67689;43.592;1.418;2023-02-12T13:37:40;23.98;;;12.65;;
78404;SDS011;67689;43.592;1.418;2023-02-12T13:40:13;24.88;;;12.68;;
78404;SDS011;67689;43.592;1.418;2023-02-12T13:51:03;22.23;;;11.43;;
78404;SDS011;67689;43.592;1.418;2023-02-12T13:53:46;24.48;;;11.63;;
78404;SDS011;67689;43.592;1.418;2023-02-12T13:56:32;22.42;;;11.27;;
78404;SDS011;67689;43.592;1.418;2023-02-12T13:58:58;21.13;;;11.05;;
78404;SDS011;67689;43.592;1.418;2023-02-12T14:06:56;21.17;;;11.15;;
78404;SDS011;67689;43.592;1.418;2023-02-12T14:09:40;21.08;;;11.10;;
78404;SDS011;67689;43.592;1.418;2023-02-12T14:12:11;20.85;;;11.82;;
78404;SDS011;67689;43.592;1.418;2023-02-12T14:14:40;21.55;;;11.73;;
78404;SDS011;67689;43.592;1.418;2023-02-12T14:24:55;19.80;;;10.77;;
78404;SDS011;67689;43.592;1.418;2023-02-12T14:27:26;21.40;;;11.15;;
78404;SDS011;67689;43.592;1.418;2023-02-12T14:30:01;21.52;;;11.90;;
78404;SDS011;67689;43.592;1.418;2023-02-12T14:37:54;20.13;;;10.52;;
78404;SDS011;67689;43.592;1.418;2023-02-12T14:43:21;21.30;;;10.80;;
78404;SDS011;67689;43.592;1.418;2023-02-12T14:45:48;18.98;;;10.48;;
78404;SDS011;67689;43.592;1.418;2023-02-12T14:49:00;18.85;;;10.32;;
78404;SDS011;67689;43.592;1.418;2023-02-12T14:51:16;18.80;;;10.73;;
78404;SDS011;67689;43.592;1.418;2023-02-12T14:53:53;19.63;;;10.70;;
78404;SDS011;67689;43.592;1.418;2023-02-12T14:56:20;20.25;;;10.80;;
78404;SDS011;67689;43.592;1.418;2023-02-12T14:58:46;19.85;;;10.82;;
78404;SDS011;67689;43.592;1.418;2023-02-12T15:01:15;21.98;;;10.85;;
78404;SDS011;67689;43.592;1.418;2023-02-12T15:03:48;24.08;;;11.40;;
78404;SDS011;67689;43.592;1.418;2023-02-12T15:06:23;24.43;;;13.17;;
78404;SDS011;67689;43.592;1.418;2023-02-12T15:08:56;26.67;;;13.82;;
78404;SDS011;67689;43.592;1.418;2023-02-12T15:11:37;24.58;;;12.18;;
78404;SDS011;67689;43.592;1.418;2023-02-12T15:14:11;20.67;;;10.73;;
78404;SDS011;67689;43.592;1.418;2023-02-12T15:16:54;23.92;;;10.77;;
78404;SDS011;67689;43.592;1.418;2023-02-12T15:19:36;19.58;;;10.60;;
78404;SDS011;67689;43.592;1.418;2023-02-12T15:22:08;19.55;;;10.63;;
78404;SDS011;67689;43.592;1.418;2023-02-12T15:24:46;19.20;;;9.95;;
78404;SDS011;67689;43.592;1.418;2023-02-12T15:27:12;20.33;;;10.18;;
78404;SDS011;67689;43.592;1.418;2023-02-12T15:29:40;19.17;;;10.45;;
78404;SDS011;67689;43.592;1.418;2023-02-12T15:32:08;21.40;;;10.90;;
78404;SDS011;67689;43.592;1.418;2023-02-12T15:34:58;22.10;;;10.23;;
78404;SDS011;67689;43.592;1.418;2023-02-12T15:37:24;19.83;;;10.73;;
78404;SDS011;67689;43.592;1.418;2023-02-12T15:39:52;19.17;;;10.10;;
78404;SDS011;67689;43.592;1.418;2023-02-12T15:42:27;16.75;;;9.35;;
78404;SDS011;67689;43.592;1.418;2023-02-12T15:47:38;20.52;;;10.35;;
78404;SDS011;67689;43.592;1.418;2023-02-12T15:50:03;17.77;;;9.77;;
78404;SDS011;67689;43.592;1.418;2023-02-12T15:52:31;18.08;;;9.40;;
78404;SDS011;67689;43.592;1.418;2023-02-12T15:54:59;20.23;;;9.63;;
78404;SDS011;67689;43.592;1.418;2023-02-12T15:57:25;20.05;;;10.07;;
78404;SDS011;67689;43.592;1.418;2023-02-12T15:59:51;19.60;;;9.77;;
78404;SDS011;67689;43.592;1.418;2023-02-12T16:02:20;18.65;;;9.55;;
78404;SDS011;67689;43.592;1.418;2023-02-12T16:04:49;17.58;;;9.25;;
78404;SDS011;67689;43.592;1.418;2023-02-12T16:07:15;18.27;;;10.05;;
78404;SDS011;67689;43.592;1.418;2023-02-12T16:09:41;19.02;;;10.02;;
78404;SDS011;67689;43.592;1.418;2023-02-12T16:12:08;21.10;;;10.13;;
78404;SDS011;67689;43.592;1.418;2023-02-12T16:17:50;18.92;;;10.30;;
78404;SDS011;67689;43.592;1.418;2023-02-12T16:24:57;20.65;;;10.18;;
78404;SDS011;67689;43.592;1.418;2023-02-12T16:27:23;18.38;;;10.80;;
78404;SDS011;67689;43.592;1.418;2023-02-12T16:29:59;18.40;;;10.10;;
78404;SDS011;67689;43.592;1.418;2023-02-12T16:32:40;21.52;;;10.75;;
78404;SDS011;67689;43.592;1.418;2023-02-12T16:42:38;18.98;;;9.95;;
78404;SDS011;67689;43.592;1.418;2023-02-12T16:47:52;18.48;;;10.18;;
78404;SDS011;67689;43.592;1.418;2023-02-12T16:50:26;19.80;;;10.30;;
78404;SDS011;67689;43.592;1.418;2023-02-12T16:53:15;21.63;;;11.88;;
78404;SDS011;67689;43.592;1.418;2023-02-12T16:55:51;23.50;;;12.70;;
78404;SDS011;67689;43.592;1.418;2023-02-12T16:58:16;20.83;;;11.40;;
78404;SDS011;67689;43.592;1.418;2023-02-12T17:00:41;22.75;;;11.60;;
78404;SDS011;67689;43.592;1.418;2023-02-12T17:03:14;21.23;;;11.63;;
78404;SDS011;67689;43.592;1.418;2023-02-12T17:05:40;25.83;;;13.25;;
78404;SDS011;67689;43.592;1.418;2023-02-12T17:08:17;21.90;;;11.68;;
78404;SDS011;67689;43.592;1.418;2023-02-12T17:10:44;22.45;;;12.38;;
78404;SDS011;67689;43.592;1.418;2023-02-12T17:13:12;22.73;;;13.00;;
78404;SDS011;67689;43.592;1.418;2023-02-12T17:15:57;25.23;;;13.65;;
78404;SDS011;67689;43.592;1.418;2023-02-12T17:18:25;23.65;;;12.77;;